Time;durP1;ratioP1;P1;durP2;ratioP2;P2;SDS_P1;SDS_P2;PMS_P1;PMS_P2;Temp;Humidity;BMP_temperature;BMP_pressure;BME280_temperature;BME280_humidity;BME280_pressure;Samples;Min_cycle;Max_cycle;Signal;HPM_P1;HPM_P2
2023/01/12 00:01:07;;;;;;;15.27;3.23;;;9.60;99.90;;;;;;4972141;28;20207;-91
2023/01/12 00:03:36;;;;;;;14.90;3.40;;;9.60;99.90;;;;;;4972383;28;20192;-92
2023/01/12 00:06:06;;;;;;;10.50;3.03;;;9.50;99.90;;;;;;4956455;29;20258;-91
2023/01/12 00:08:35;;;;;;;17.27;3.70;;;9.60;99.90;;;;;;4972045;28;20180;-90
2023/01/12 00:11:02;;;;;;;15.07;3.53;;;9.60;99.90;;;;;;4957700;29;20200;-89
2023/01/12 00:13:32;;;;;;;12.53;3.93;;;9.60;99.90;;;;;;4969484;29;20176;-91
2023/01/12 00:18:49;;;;;;;15.73;3.87;;;9.60;99.90;;;;;;4979251;28;20711;-88
2023/01/12 00:21:15;;;;;;;14.13;3.23;;;9.50;99.90;;;;;;4978437;28;20149;-91
2023/01/12 00:23:41;;;;;;;20.77;3.97;;;9.60;99.90;;;;;;4976689;28;20172;-91
2023/01/12 00:26:09;;;;;;;14.87;3.33;;;9.50;99.90;;;;;;4974392;28;20180;-85
2023/01/12 00:28:38;;;;;;;12.57;3.03;;;9.60;99.90;;;;;;4971281;29;20204;-90
2023/01/12 00:31:10;;;;;;;10.70;2.67;;;9.60;99.90;;;;;;4953498;29;20273;-91
2023/01/12 00:33:38;;;;;;;14.37;3.40;;;9.70;99.90;;;;;;4970010;28;20274;-91
2023/01/12 00:36:10;;;;;;;9.57;2.70;;;9.70;99.90;;;;;;4971304;28;20165;-91
2023/01/12 00:38:39;;;;;;;13.47;3.80;;;9.80;99.90;;;;;;4954236;29;20214;-89
2023/01/12 00:41:10;;;;;;;14.73;3.30;;;9.80;99.90;;;;;;4970992;28;20196;-91
2023/01/12 00:46:35;;;;;;;13.87;3.47;;;9.80;99.90;;;;;;4971067;29;20227;-91
2023/01/12 00:49:03;;;;;;;18.27;3.57;;;9.90;99.90;;;;;;4954501;29;20191;-91
2023/01/12 00:51:28;;;;;;;12.63;3.97;;;10.10;99.90;;;;;;4955326;29;20179;-87
2023/01/12 00:53:54;;;;;;;15.73;4.40;;;10.00;99.30;;;;;;4976194;28;20160;-82
2023/01/12 00:56:24;;;;;;;16.93;4.47;;;10.00;99.10;;;;;;4979439;28;20204;-90
2023/01/12 00:58:50;;;;;;;12.63;3.20;;;10.00;97.80;;;;;;4979111;28;20220;-84
2023/01/12 01:01:16;;;;;;;18.93;4.07;;;10.10;96.60;;;;;;4979222;28;20236;-91
2023/01/12 01:03:43;;;;;;;13.90;3.23;;;10.00;96.90;;;;;;4994930;28;20156;-86
2023/01/12 01:06:11;;;;;;;14.93;3.77;;;10.10;96.40;;;;;;4997550;28;20247;-83
2023/01/12 01:08:38;;;;;;;13.20;3.33;;;10.20;94.70;;;;;;4998770;28;20180;-83
2023/01/12 01:11:08;;;;;;;16.17;3.67;;;10.20;93.60;;;;;;5003066;28;20166;-84
2023/01/12 01:14:20;;;;;;;13.90;3.23;;;10.20;92.50;;;;;;5003113;28;20148;-86
2023/01/12 01:20:10;;;;;;;14.63;3.00;;;10.20;92.10;;;;;;4995702;28;20242;-91
2023/01/12 01:22:52;;;;;;;16.63;3.70;;;10.20;92.40;;;;;;4996042;28;20176;-91
2023/01/12 01:25:22;;;;;;;13.03;2.87;;;10.20;92.00;;;;;;4993010;28;20167;-90
2023/01/12 01:27:50;;;;;;;13.03;3.33;;;10.20;92.70;;;;;;4995295;28;20182;-90
2023/01/12 01:30:18;;;;;;;14.37;3.87;;;10.20;94.30;;;;;;4995701;28;20187;-87
2023/01/12 01:32:47;;;;;;;12.90;3.17;;;10.10;97.20;;;;;;5014512;28;20616;-91
2023/01/12 01:35:13;;;;;;;14.13;3.20;;;10.00;99.50;;;;;;4997153;28;20180;-90
2023/01/12 01:37:39;;;;;;;12.67;3.63;;;10.10;99.90;;;;;;4994228;28;20180;-88
2023/01/12 01:40:08;;;;;;;13.10;3.40;;;10.00;99.90;;;;;;4994802;28;20222;-91
2023/01/12 01:42:34;;;;;;;12.80;3.93;;;10.00;99.90;;;;;;4992211;28;20183;-92
2023/01/12 01:45:09;;;;;;;13.63;3.20;;;10.00;99.90;;;;;;4991109;28;20175;-89
2023/01/12 01:47:41;;;;;;;12.53;3.53;;;10.00;99.90;;;;;;5008078;28;20179;-90
2023/01/12 01:50:36;;;;;;;12.17;2.97;;;10.10;98.70;;;;;;4994068;28;20190;-91
2023/01/12 01:53:26;;;;;;;17.07;3.67;;;10.10;97.20;;;;;;4998692;28;20178;-91
2023/01/12 01:56:04;;;;;;;17.60;3.27;;;10.20;96.30;;;;;;4999588;28;20156;-87
2023/01/12 01:58:54;;;;;;;10.90;2.87;;;10.20;96.40;;;;;;4999412;28;20183;-90
2023/01/12 02:01:21;;;;;;;16.03;4.23;;;10.20;96.90;;;;;;4998414;28;20179;-86
2023/01/12 02:04:12;;;;;;;15.87;3.13;;;10.20;96.90;;;;;;4982770;28;20251;-90
2023/01/12 02:06:38;;;;;;;12.87;2.97;;;10.30;97.50;;;;;;4980122;28;20203;-90
2023/01/12 02:09:14;;;;;;;15.07;2.90;;;10.20;98.30;;;;;;4982266;28;20183;-88
2023/01/12 02:18:10;;;;;;;11.43;2.53;;;10.20;99.70;;;;;;5001505;28;20218;-88
2023/01/12 02:27:57;;;;;;;12.77;3.20;;;10.20;99.00;;;;;;5000153;28;20174;-91
2023/01/12 02:30:58;;;;;;;8.87;2.63;;;10.30;98.50;;;;;;4995647;28;20275;-91
2023/01/12 02:33:55;;;;;;;10.23;2.60;;;10.20;98.30;;;;;;4995729;28;20182;-91
2023/01/12 02:36:59;;;;;;;11.43;2.80;;;10.20;99.20;;;;;;4983016;28;20187;-90
2023/01/12 02:39:58;;;;;;;10.60;2.93;;;10.20;99.90;;;;;;4996145;28;20203;-89
2023/01/12 02:43:28;;;;;;;17.20;3.53;;;10.20;99.90;;;;;;4995638;28;20176;-90
2023/01/12 02:46:17;;;;;;;12.73;2.90;;;10.10;99.90;;;;;;4956901;29;20189;-84
2023/01/12 02:49:15;;;;;;;13.83;2.73;;;10.10;99.90;;;;;;4997151;28;20160;-87
2023/01/12 02:52:17;;;;;;;13.47;2.93;;;10.10;99.90;;;;;;4998110;28;20215;-87
2023/01/12 02:54:55;;;;;;;11.67;3.00;;;10.10;99.90;;;;;;4982109;28;20200;-90
2023/01/12 02:57:24;;;;;;;13.97;3.57;;;10.10;99.90;;;;;;4998212;28;20183;-90
2023/01/12 02:59:54;;;;;;;13.87;3.50;;;10.10;99.90;;;;;;4996333;28;20222;-87
2023/01/12 03:02:23;;;;;;;13.93;3.27;;;9.90;99.90;;;;;;4993826;28;20172;-90
2023/01/12 03:04:51;;;;;;;11.53;2.97;;;10.00;99.90;;;;;;4993748;28;20164;-90
2023/01/12 03:07:27;;;;;;;12.20;3.60;;;10.10;99.90;;;;;;4975197;28;20176;-90
2023/01/12 03:10:05;;;;;;;11.90;4.00;;;10.10;99.90;;;;;;4989803;28;20195;-90
2023/01/12 03:12:35;;;;;;;13.07;3.53;;;10.00;99.90;;;;;;4990189;28;20178;-86
2023/01/12 03:15:07;;;;;;;14.87;3.30;;;10.20;99.90;;;;;;4992125;28;20179;-88
2023/01/12 03:17:41;;;;;;;15.37;3.23;;;10.10;99.90;;;;;;4990356;28;20171;-88
2023/01/12 03:20:15;;;;;;;12.20;3.83;;;10.10;99.90;;;;;;4973860;28;20679;-89
2023/01/12 03:22:44;;;;;;;16.17;4.30;;;10.10;99.90;;;;;;4989676;28;20223;-87
2023/01/12 03:25:12;;;;;;;16.87;4.17;;;9.90;99.90;;;;;;4990240;28;20222;-87
2023/01/12 03:27:41;;;;;;;15.53;3.47;;;10.10;99.90;;;;;;4991918;28;20266;-82
2023/01/12 03:30:30;;;;;;;17.57;4.00;;;10.00;99.90;;;;;;4991547;28;20230;-88
2023/01/12 03:32:59;;;;;;;15.33;3.57;;;10.00;99.90;;;;;;4988945;28;20186;-90
2023/01/12 03:35:30;;;;;;;14.67;3.47;;;10.00;99.90;;;;;;4972210;28;20172;-90
2023/01/12 03:38:15;;;;;;;14.37;3.33;;;9.90;99.90;;;;;;4987521;28;20194;-89
2023/01/12 03:40:50;;;;;;;12.63;3.80;;;9.90;99.90;;;;;;4996572;28;20207;-83
2023/01/12 03:43:34;;;;;;;16.90;4.17;;;9.90;99.90;;;;;;4993675;28;20167;-89
2023/01/12 03:46:21;;;;;;;18.80;5.10;;;10.00;99.90;;;;;;4979280;28;20171;-89
2023/01/12 03:49:00;;;;;;;22.53;5.07;;;9.90;99.90;;;;;;4987347;28;20176;-89
2023/01/12 03:51:30;;;;;;;14.50;4.10;;;10.00;99.90;;;;;;4985707;28;20175;-90
2023/01/12 03:53:57;;;;;;;12.53;3.60;;;10.00;99.90;;;;;;4972979;28;20180;-88
2023/01/12 03:56:30;;;;;;;15.97;4.40;;;10.00;99.90;;;;;;4989801;28;20181;-89
2023/01/12 03:58:57;;;;;;;16.10;4.60;;;10.00;99.90;;;;;;4988611;28;20672;-89
2023/01/12 04:01:23;;;;;;;12.70;3.63;;;10.10;99.90;;;;;;4990462;28;20195;-88
2023/01/12 04:03:48;;;;;;;18.80;5.13;;;10.10;99.90;;;;;;4974120;28;20191;-88
2023/01/12 04:06:15;;;;;;;18.37;4.77;;;10.10;99.90;;;;;;4989342;28;20168;-89
2023/01/12 04:08:42;;;;;;;14.90;3.80;;;10.20;99.90;;;;;;4989145;28;20180;-88
2023/01/12 04:13:52;;;;;;;10.53;3.17;;;10.20;99.90;;;;;;4988865;28;20190;-88
2023/01/12 04:16:18;;;;;;;16.90;3.73;;;10.30;99.90;;;;;;4989984;28;20266;-89
2023/01/12 04:18:44;;;;;;;11.20;3.07;;;10.20;99.90;;;;;;4989735;28;20188;-88
2023/01/12 04:22:41;;;;;;;15.67;3.07;;;10.20;99.90;;;;;;4989764;28;20585;-89
2023/01/12 04:23:55;;;;;;;10.47;2.67;;;10.40;99.90;;;;;;4990192;28;20155;-88
2023/01/12 04:26:23;;;;;;;16.13;3.37;;;10.20;99.90;;;;;;4988155;28;20207;-87
2023/01/12 04:28:49;;;;;;;13.67;3.43;;;10.20;99.90;;;;;;4996199;28;20171;-83
2023/01/12 04:31:14;;;;;;;13.10;2.97;;;10.20;99.90;;;;;;4997663;28;20183;-89
2023/01/12 04:33:42;;;;;;;10.83;2.50;;;10.20;99.90;;;;;;5005855;28;20210;-87
2023/01/12 04:36:10;;;;;;;13.40;2.77;;;10.20;99.90;;;;;;4974843;28;20720;-88
2023/01/12 04:38:39;;;;;;;14.60;3.30;;;10.20;99.90;;;;;;4976242;28;20167;-88
2023/01/12 04:41:13;;;;;;;12.27;3.10;;;10.30;99.90;;;;;;4998705;28;20195;-83
2023/01/12 04:43:54;;;;;;;16.27;3.63;;;10.20;99.90;;;;;;4979046;28;20190;-89
2023/01/12 04:46:19;;;;;;;11.13;3.47;;;10.20;99.90;;;;;;4994237;28;20238;-88
2023/01/12 04:48:45;;;;;;;10.77;2.83;;;10.20;99.90;;;;;;4994452;28;20180;-85
2023/01/12 04:51:12;;;;;;;12.23;2.63;;;10.20;99.90;;;;;;4977230;28;20171;-89
2023/01/12 04:53:40;;;;;;;18.83;4.07;;;10.40;99.90;;;;;;4996516;28;20172;-89
2023/01/12 04:56:07;;;;;;;12.80;2.83;;;10.30;99.90;;;;;;4981725;28;20190;-89
2023/01/12 04:58:36;;;;;;;13.50;3.20;;;10.20;99.90;;;;;;4999251;28;20175;-86
2023/01/12 05:05:17;;;;;;;10.67;2.57;;;10.10;99.90;;;;;;5002027;28;20195;-88
2023/01/12 05:10:28;;;;;;;12.57;2.93;;;10.20;99.90;;;;;;4999399;28;20159;-86
2023/01/12 05:12:55;;;;;;;11.30;3.63;;;10.20;99.90;;;;;;4997148;28;20263;-89
2023/01/12 05:15:25;;;;;;;12.10;2.83;;;10.20;99.90;;;;;;4997272;28;20191;-89
2023/01/12 05:17:53;;;;;;;11.80;2.43;;;10.20;99.90;;;;;;5000502;28;20184;-88
2023/01/12 05:20:20;;;;;;;13.33;2.63;;;10.20;99.90;;;;;;5013796;28;20210;-89
2023/01/12 05:22:53;;;;;;;9.87;3.13;;;10.20;99.90;;;;;;5002241;28;20180;-84
2023/01/12 05:25:28;;;;;;;11.27;2.97;;;10.20;99.90;;;;;;5002221;28;20148;-86
2023/01/12 05:27:58;;;;;;;9.73;2.67;;;10.20;99.90;;;;;;4999251;28;20178;-87
2023/01/12 05:33:46;;;;;;;13.53;2.73;;;10.10;99.90;;;;;;4996079;28;20215;-90
2023/01/12 05:36:15;;;;;;;12.43;2.20;;;10.00;99.90;;;;;;5008272;28;20184;-89
2023/01/12 05:38:41;;;;;;;11.67;2.50;;;10.00;99.90;;;;;;4992654;28;20209;-89
2023/01/12 05:41:10;;;;;;;11.53;2.60;;;10.00;99.90;;;;;;4990914;28;20266;-88
2023/01/12 05:43:51;;;;;;;9.67;2.93;;;10.00;99.90;;;;;;4991281;28;20179;-89
2023/01/12 05:46:27;;;;;;;11.97;2.67;;;9.90;99.90;;;;;;4991109;28;20199;-90
2023/01/12 05:48:54;;;;;;;14.80;2.80;;;10.00;99.90;;;;;;4991184;28;20182;-87
2023/01/12 05:51:20;;;;;;;15.20;2.50;;;10.00;99.90;;;;;;4991714;28;20247;-88
2023/01/12 05:53:46;;;;;;;12.03;3.37;;;9.90;99.90;;;;;;4990761;28;20183;-89
2023/01/12 05:56:20;;;;;;;10.93;2.73;;;10.00;99.90;;;;;;4991520;28;20171;-89
2023/01/12 05:58:51;;;;;;;12.20;3.00;;;10.00;99.90;;;;;;4991485;28;20175;-87
2023/01/12 06:01:18;;;;;;;12.77;3.07;;;9.90;99.90;;;;;;4992730;28;20176;-89
2023/01/12 06:03:50;;;;;;;11.07;2.93;;;9.90;99.90;;;;;;4975796;28;20206;-91
2023/01/12 06:06:17;;;;;;;10.67;2.77;;;9.80;99.90;;;;;;4992180;28;20251;-88
2023/01/12 06:08:44;;;;;;;14.17;3.37;;;9.80;99.90;;;;;;4960747;28;20176;-89
2023/01/12 06:13:55;;;;;;;16.70;3.27;;;9.80;99.90;;;;;;4991264;28;20191;-90
2023/01/12 06:13:57;;;;;;;14.03;2.97;;;9.80;99.90;;;;;;4992843;28;20164;-87
2023/01/12 06:16:25;;;;;;;14.43;3.43;;;9.80;99.90;;;;;;4992451;28;20179;-89
2023/01/12 06:18:51;;;;;;;13.40;2.80;;;9.90;99.90;;;;;;4997947;28;20202;-86
2023/01/12 06:21:16;;;;;;;13.50;3.20;;;9.90;99.90;;;;;;5000317;28;20183;-89
2023/01/12 06:23:42;;;;;;;12.97;3.33;;;9.90;99.90;;;;;;5016948;28;20176;-89
2023/01/12 06:26:11;;;;;;;10.47;2.93;;;10.00;99.90;;;;;;5000766;28;20156;-87
2023/01/12 06:28:39;;;;;;;13.07;2.97;;;9.90;99.90;;;;;;4999906;28;20234;-87
2023/01/12 06:31:09;;;;;;;11.10;2.80;;;9.90;99.90;;;;;;5000298;28;20179;-89
2023/01/12 06:33:40;;;;;;;12.33;2.67;;;9.90;99.90;;;;;;4998721;28;20168;-87
2023/01/12 06:36:16;;;;;;;15.93;3.17;;;10.00;99.90;;;;;;4998225;28;20172;-88
2023/01/12 06:38:54;;;;;;;12.27;3.00;;;10.10;99.90;;;;;;4997993;28;20176;-89
2023/01/12 06:44:15;;;;;;;14.87;2.87;;;10.10;99.90;;;;;;5007522;28;20175;-90
2023/01/12 06:46:41;;;;;;;10.43;2.10;;;10.10;99.90;;;;;;4993141;28;20184;-89
2023/01/12 06:49:07;;;;;;;10.97;2.70;;;10.10;99.90;;;;;;4995413;28;20160;-88
2023/01/12 06:51:32;;;;;;;11.73;2.90;;;10.10;99.90;;;;;;4994231;28;20242;-89
2023/01/12 06:54:00;;;;;;;8.43;2.60;;;10.10;99.90;;;;;;4994615;28;20187;-90
2023/01/12 06:56:28;;;;;;;15.33;2.70;;;10.10;99.90;;;;;;4997575;28;20148;-90
2023/01/12 06:58:54;;;;;;;10.27;2.47;;;10.10;99.90;;;;;;4993239;28;20691;-93
2023/01/12 07:01:25;;;;;;;12.80;2.73;;;10.10;99.90;;;;;;4992556;28;20171;-91
2023/01/12 07:03:52;;;;;;;9.87;2.20;;;10.10;99.90;;;;;;4993397;28;20166;-90
2023/01/12 07:06:18;;;;;;;8.90;2.30;;;10.10;99.90;;;;;;4993333;28;20203;-90
2023/01/12 07:08:46;;;;;;;8.53;3.13;;;10.10;99.90;;;;;;4989067;28;20202;-87
2023/01/12 07:11:13;;;;;;;12.03;2.33;;;10.20;99.90;;;;;;4995358;28;20194;-87
2023/01/12 07:13:39;;;;;;;12.30;2.90;;;10.20;99.90;;;;;;4988233;28;20186;-87
2023/01/12 07:16:14;;;;;;;10.57;2.33;;;10.20;99.90;;;;;;4971679;28;20266;-87
2023/01/12 07:18:40;;;;;;;6.87;1.90;;;10.20;99.90;;;;;;4986199;28;20270;-89
2023/01/12 07:21:07;;;;;;;8.33;2.20;;;10.20;99.90;;;;;;4973636;28;20187;-89
2023/01/12 07:23:36;;;;;;;9.40;2.33;;;10.20;99.90;;;;;;4998282;28;20199;-90
2023/01/12 07:26:03;;;;;;;8.03;2.30;;;10.30;99.90;;;;;;4999313;28;20239;-89
2023/01/12 07:28:32;;;;;;;7.27;1.97;;;10.20;99.90;;;;;;4999138;28;20247;-84
2023/01/12 07:31:02;;;;;;;7.93;2.23;;;10.20;99.90;;;;;;4992651;28;20200;-88
2023/01/12 07:33:29;;;;;;;7.73;1.93;;;10.20;99.90;;;;;;4984049;28;20183;-89
2023/01/12 07:36:07;;;;;;;11.80;2.40;;;10.20;99.90;;;;;;4984967;28;20187;-89
2023/01/12 07:38:34;;;;;;;11.33;2.50;;;10.20;99.90;;;;;;4987354;28;20168;-89
2023/01/12 07:41:01;;;;;;;9.97;2.70;;;10.20;99.90;;;;;;4989180;28;20188;-87
2023/01/12 07:43:29;;;;;;;8.47;2.87;;;10.20;99.90;;;;;;4962099;28;20210;-88
2023/01/12 07:45:56;;;;;;;7.27;2.60;;;10.20;99.90;;;;;;4980444;28;20247;-87
2023/01/12 07:48:23;;;;;;;13.60;2.70;;;10.20;99.90;;;;;;4996359;28;20203;-88
2023/01/12 07:50:49;;;;;;;12.30;2.50;;;10.20;99.90;;;;;;4986447;28;20179;-88
2023/01/12 07:53:18;;;;;;;10.00;2.10;;;10.20;99.90;;;;;;4985796;28;20266;-88
2023/01/12 07:55:50;;;;;;;10.47;3.00;;;10.20;99.90;;;;;;4982702;28;20179;-87
2023/01/12 07:58:16;;;;;;;9.57;2.70;;;10.30;99.90;;;;;;4983649;28;20172;-88
2023/01/12 08:00:43;;;;;;;12.07;3.07;;;10.30;99.90;;;;;;4983146;28;20215;-89
2023/01/12 08:03:12;;;;;;;9.83;2.77;;;10.30;99.90;;;;;;4984985;28;20551;-87
2023/01/12 08:05:39;;;;;;;12.47;2.43;;;10.30;99.90;;;;;;4983921;28;20235;-87
2023/01/12 08:08:05;;;;;;;12.40;3.20;;;10.40;99.90;;;;;;4967655;28;20175;-87
2023/01/12 08:10:31;;;;;;;10.07;2.90;;;10.30;99.90;;;;;;4984676;28;20219;-87
2023/01/12 08:12:57;;;;;;;10.57;3.23;;;10.30;99.90;;;;;;4987588;28;20184;-87
2023/01/12 08:15:25;;;;;;;12.43;3.33;;;10.30;99.90;;;;;;4973000;28;20261;-88
2023/01/12 08:18:00;;;;;;;11.90;2.97;;;10.40;99.90;;;;;;4985649;28;20215;-86
2023/01/12 08:20:31;;;;;;;13.37;2.67;;;10.30;99.90;;;;;;4984663;28;20257;-88
2023/01/12 08:23:09;;;;;;;12.70;3.60;;;10.30;99.90;;;;;;4986829;28;20174;-87
2023/01/12 08:25:43;;;;;;;9.37;2.80;;;10.40;99.90;;;;;;4989463;28;20175;-88
2023/01/12 08:28:33;;;;;;;9.87;2.50;;;10.30;99.90;;;;;;4986975;28;20176;-89
2023/01/12 08:31:22;;;;;;;6.77;2.27;;;10.30;99.90;;;;;;4987574;28;20199;-88
2023/01/12 08:33:50;;;;;;;8.63;2.87;;;10.30;99.90;;;;;;4989126;28;20219;-87
2023/01/12 08:36:29;;;;;;;7.00;2.10;;;10.40;99.90;;;;;;4997886;28;20199;-87
2023/01/12 08:38:55;;;;;;;10.40;2.57;;;10.30;99.90;;;;;;4982851;28;20259;-87
2023/01/12 08:41:31;;;;;;;10.60;2.30;;;10.30;99.90;;;;;;4998346;28;20205;-86
2023/01/12 08:44:00;;;;;;;5.20;1.83;;;10.50;99.90;;;;;;4981059;28;20182;-86
2023/01/12 08:46:34;;;;;;;10.37;2.00;;;10.30;99.90;;;;;;4993063;28;20171;-86
2023/01/12 08:49:31;;;;;;;14.73;3.37;;;10.30;99.90;;;;;;4984001;28;20175;-87
2023/01/12 08:51:59;;;;;;;12.47;2.17;;;10.40;99.90;;;;;;4986337;28;20183;-87
2023/01/12 08:54:25;;;;;;;8.77;2.00;;;10.40;99.90;;;;;;4966996;28;20190;-88
2023/01/12 08:56:53;;;;;;;8.33;2.07;;;10.50;99.90;;;;;;4985710;28;20179;-87
2023/01/12 08:59:21;;;;;;;8.87;2.10;;;10.40;99.90;;;;;;4989013;28;20207;-85
2023/01/12 09:01:47;;;;;;;8.93;1.83;;;10.40;99.90;;;;;;4997302;28;20179;-88
2023/01/12 09:04:14;;;;;;;8.77;2.37;;;10.40;99.90;;;;;;4987787;28;20180;-86
2023/01/12 09:06:44;;;;;;;11.67;2.10;;;10.40;99.90;;;;;;4988127;28;20186;-87
2023/01/12 09:09:14;;;;;;;6.57;2.03;;;10.40;99.90;;;;;;4987682;28;20176;-88
2023/01/12 09:11:41;;;;;;;6.80;2.17;;;10.40;99.90;;;;;;4970706;28;20187;-87
2023/01/12 09:14:07;;;;;;;11.10;2.40;;;10.60;99.90;;;;;;4994682;28;20172;-87
2023/01/12 09:16:34;;;;;;;8.63;2.40;;;10.50;99.90;;;;;;4998104;28;20240;-86
2023/01/12 09:19:01;;;;;;;8.67;2.03;;;10.50;99.90;;;;;;4997742;28;20215;-84
2023/01/12 09:21:31;;;;;;;9.87;2.27;;;10.60;99.90;;;;;;4997464;28;20160;-86
2023/01/12 09:24:01;;;;;;;9.20;1.97;;;10.60;99.90;;;;;;4997088;28;20183;-86
2023/01/12 09:29:49;;;;;;;6.53;2.27;;;10.60;99.90;;;;;;4997312;28;20279;-86
2023/01/12 09:32:22;;;;;;;7.80;2.10;;;10.60;99.90;;;;;;4997142;28;20176;-85
2023/01/12 09:34:48;;;;;;;6.93;1.97;;;10.60;99.90;;;;;;4995387;28;20176;-85
2023/01/12 09:37:17;;;;;;;10.13;2.30;;;10.60;99.90;;;;;;4994382;28;20187;-87
2023/01/12 09:39:46;;;;;;;7.40;2.10;;;10.60;99.90;;;;;;4989738;28;20215;-84
2023/01/12 09:48:10;;;;;;;8.57;2.17;;;10.60;99.90;;;;;;4987883;28;20183;-88
2023/01/12 09:51:02;;;;;;;8.07;2.00;;;10.70;99.90;;;;;;4986636;28;20183;-87
2023/01/12 09:53:37;;;;;;;9.87;2.17;;;10.70;99.90;;;;;;4976738;28;20179;-87
2023/01/12 09:56:27;;;;;;;6.23;1.83;;;10.70;99.90;;;;;;4988611;28;20214;-87
2023/01/12 09:59:35;;;;;;;7.17;2.10;;;10.70;99.90;;;;;;4992239;28;20168;-88
2023/01/12 10:02:11;;;;;;;6.53;2.10;;;10.70;99.90;;;;;;4944910;28;20236;-88
2023/01/12 10:04:39;;;;;;;5.80;2.20;;;10.60;99.90;;;;;;4946056;28;20205;-87
2023/01/12 10:07:13;;;;;;;7.60;2.50;;;10.70;99.90;;;;;;4945749;28;20193;-86
2023/01/12 10:09:43;;;;;;;8.30;2.10;;;10.70;99.90;;;;;;4946188;28;20170;-89
2023/01/12 10:12:40;;;;;;;8.80;1.97;;;10.70;99.90;;;;;;4956174;29;20161;-88
2023/01/12 10:15:44;;;;;;;8.27;2.50;;;10.70;99.90;;;;;;4932363;29;20185;-88
2023/01/12 10:18:49;;;;;;;7.43;2.20;;;10.70;99.90;;;;;;4916592;29;20189;-88
2023/01/12 10:21:38;;;;;;;8.27;2.10;;;10.70;99.90;;;;;;4898217;29;20204;-89
2023/01/12 10:24:34;;;;;;;9.97;2.40;;;10.70;99.90;;;;;;4898157;29;20173;-89
2023/01/12 10:27:03;;;;;;;6.63;2.63;;;10.70;99.90;;;;;;4988386;28;20752;-88
2023/01/12 10:29:31;;;;;;;8.80;3.20;;;10.80;99.90;;;;;;4998487;28;20179;-88
2023/01/12 10:31:58;;;;;;;7.90;2.40;;;10.70;99.90;;;;;;4997945;28;20191;-87
2023/01/12 10:34:23;;;;;;;7.17;2.30;;;10.70;99.90;;;;;;4988028;28;20175;-88
2023/01/12 10:36:56;;;;;;;9.47;2.30;;;10.70;99.90;;;;;;4987961;28;20175;-88
2023/01/12 10:39:44;;;;;;;9.77;2.53;;;10.70;99.90;;;;;;4986879;28;20235;-88
2023/01/12 10:45:23;;;;;;;9.17;2.30;;;10.70;99.90;;;;;;4991544;28;20213;-84
2023/01/12 10:47:52;;;;;;;7.63;2.40;;;10.70;99.90;;;;;;4996651;28;20274;-87
2023/01/12 10:50:36;;;;;;;8.47;2.40;;;10.70;99.90;;;;;;4970884;28;20226;-87
2023/01/12 10:53:11;;;;;;;7.13;2.10;;;10.80;99.90;;;;;;4986024;28;20167;-89
2023/01/12 10:55:39;;;;;;;5.40;1.97;;;10.80;99.90;;;;;;4987055;28;20206;-88
2023/01/12 10:58:20;;;;;;;7.93;2.07;;;10.80;99.90;;;;;;4989329;28;20186;-86
2023/01/12 11:00:50;;;;;;;7.23;1.83;;;10.80;99.90;;;;;;4989231;28;20212;-89
2023/01/12 11:03:40;;;;;;;9.60;2.17;;;10.70;99.90;;;;;;4987686;28;20195;-89
2023/01/12 11:06:23;;;;;;;8.13;1.90;;;10.80;99.90;;;;;;4988456;28;20183;-87
2023/01/12 11:08:50;;;;;;;9.67;2.00;;;10.80;99.90;;;;;;4987269;28;20196;-88
2023/01/12 11:11:27;;;;;;;6.53;1.80;;;10.80;99.90;;;;;;4984601;28;20210;-89
2023/01/12 11:13:56;;;;;;;5.63;1.53;;;10.80;99.90;;;;;;4983474;28;20190;-88
2023/01/12 11:16:24;;;;;;;9.93;2.30;;;10.80;99.90;;;;;;4983183;28;20199;-88
2023/01/12 11:19:16;;;;;;;6.63;1.67;;;10.80;99.90;;;;;;4985264;28;20521;-87
2023/01/12 11:22:01;;;;;;;5.03;2.03;;;10.70;99.90;;;;;;4982712;28;20171;-88
2023/01/12 11:24:34;;;;;;;6.13;1.73;;;10.80;99.90;;;;;;4985567;28;20199;-88
2023/01/12 11:27:06;;;;;;;7.43;1.77;;;10.80;99.90;;;;;;4984884;28;20176;-86
2023/01/12 11:29:42;;;;;;;4.47;1.90;;;10.80;99.90;;;;;;4983932;28;20219;-89
2023/01/12 11:32:40;;;;;;;4.37;1.33;;;10.90;99.90;;;;;;4984677;28;20477;-86
2023/01/12 11:35:15;;;;;;;6.20;1.60;;;10.90;99.90;;;;;;4983574;28;20180;-90
2023/01/12 11:37:41;;;;;;;5.40;1.70;;;10.90;99.90;;;;;;4998958;28;20185;-87
2023/01/12 11:40:27;;;;;;;3.47;1.20;;;11.00;99.90;;;;;;4985556;28;20219;-85
2023/01/12 11:46:11;;;;;;;5.93;1.63;;;11.00;99.90;;;;;;4998734;28;20282;-86
2023/01/12 11:48:53;;;;;;;4.90;1.60;;;10.90;99.90;;;;;;4999111;28;20160;-85
2023/01/12 11:51:21;;;;;;;4.50;1.47;;;10.90;99.90;;;;;;5012804;28;20183;-88
2023/01/12 11:54:06;;;;;;;4.27;1.23;;;11.10;99.90;;;;;;4993428;28;20203;-89
2023/01/12 11:57:17;;;;;;;5.70;1.30;;;11.00;99.90;;;;;;4985481;28;20184;-90
2023/01/12 12:00:14;;;;;;;6.33;1.40;;;11.00;99.90;;;;;;5000474;28;20198;-88
2023/01/12 12:03:04;;;;;;;6.37;1.90;;;11.00;99.90;;;;;;5006091;28;20160;-89
2023/01/12 12:05:49;;;;;;;4.87;1.77;;;11.10;99.90;;;;;;5014141;28;20227;-88
2023/01/12 12:09:02;;;;;;;6.20;1.80;;;11.10;99.90;;;;;;5013144;28;20175;-88
2023/01/12 12:11:59;;;;;;;4.27;1.53;;;11.10;99.90;;;;;;4995542;28;20171;-88
2023/01/12 12:15:02;;;;;;;5.30;1.83;;;11.10;99.90;;;;;;5014579;28;20168;-87
2023/01/12 12:18:10;;;;;;;4.03;1.40;;;11.10;99.90;;;;;;5007130;28;20175;-89
2023/01/12 12:21:33;;;;;;;5.73;1.10;;;11.10;99.90;;;;;;5011025;28;20207;-88
2023/01/12 12:24:20;;;;;;;6.13;2.07;;;11.10;99.90;;;;;;4967313;29;20198;-90
2023/01/12 12:27:04;;;;;;;4.73;1.40;;;11.10;99.90;;;;;;4965123;29;20169;-89
2023/01/12 12:30:01;;;;;;;3.80;1.53;;;11.10;99.90;;;;;;4984539;28;20187;-88
2023/01/12 12:32:43;;;;;;;4.33;1.40;;;11.10;99.90;;;;;;5014506;28;20171;-87
2023/01/12 12:35:23;;;;;;;6.50;1.43;;;11.20;99.90;;;;;;4997917;28;20188;-88
2023/01/12 12:38:23;;;;;;;4.50;1.70;;;11.10;99.90;;;;;;5013949;28;20195;-88
2023/01/12 12:47:40;;;;;;;5.77;1.73;;;11.10;99.90;;;;;;4991512;28;20171;-88
2023/01/12 12:50:24;;;;;;;5.63;1.60;;;11.10;99.90;;;;;;4999562;28;20243;-87
2023/01/12 12:52:59;;;;;;;5.37;1.70;;;11.10;99.90;;;;;;4994150;28;20175;-88
2023/01/12 12:55:26;;;;;;;4.63;1.67;;;11.10;99.90;;;;;;5011103;28;20187;-87
2023/01/12 12:58:24;;;;;;;4.33;1.57;;;11.10;99.90;;;;;;4988156;28;20180;-88
2023/01/12 13:00:52;;;;;;;5.93;1.60;;;11.10;99.90;;;;;;4983769;28;20302;-88
2023/01/12 13:03:39;;;;;;;5.27;1.67;;;11.30;99.90;;;;;;4983397;28;20179;-89
2023/01/12 13:06:18;;;;;;;4.20;1.50;;;11.20;99.90;;;;;;5002344;28;20183;-89
2023/01/12 13:08:45;;;;;;;3.03;1.07;;;11.20;99.90;;;;;;5004782;28;20179;-89
2023/01/12 13:11:11;;;;;;;6.17;1.70;;;11.20;99.90;;;;;;4993135;28;20175;-86
2023/01/12 13:13:55;;;;;;;5.17;1.47;;;11.20;99.90;;;;;;5001705;28;20171;-86
2023/01/12 13:16:24;;;;;;;4.00;1.60;;;11.10;99.90;;;;;;4998777;28;20215;-86
2023/01/12 13:18:51;;;;;;;4.63;1.60;;;11.20;99.90;;;;;;5016417;28;20175;-87
2023/01/12 13:24:41;;;;;;;8.33;1.90;;;11.20;99.90;;;;;;4993058;28;20174;-89
2023/01/12 13:27:45;;;;;;;4.30;1.57;;;11.20;99.90;;;;;;4989294;28;20190;-89
2023/01/12 13:30:29;;;;;;;3.93;1.27;;;11.30;99.90;;;;;;5007389;28;20191;-89
2023/01/12 13:32:59;;;;;;;4.90;1.83;;;11.20;99.90;;;;;;5011980;28;20171;-89
2023/01/12 13:35:48;;;;;;;3.70;1.20;;;11.30;99.90;;;;;;5008324;28;20176;-87
2023/01/12 13:38:24;;;;;;;3.13;1.40;;;11.30;99.90;;;;;;4996450;28;20265;-88
2023/01/12 13:40:49;;;;;;;5.17;1.37;;;11.30;99.90;;;;;;5005560;28;20226;-89
2023/01/12 13:43:29;;;;;;;3.77;1.50;;;11.40;99.90;;;;;;4989733;28;20175;-88
2023/01/12 13:46:26;;;;;;;4.53;1.50;;;11.50;99.90;;;;;;4989510;28;20638;-87
2023/01/12 13:48:56;;;;;;;2.23;1.00;;;11.40;99.90;;;;;;4982153;28;20188;-90
2023/01/12 13:51:33;;;;;;;4.67;1.57;;;11.50;99.90;;;;;;4991279;28;20715;-88
2023/01/12 13:54:03;;;;;;;4.97;1.30;;;11.30;99.90;;;;;;4990064;28;20201;-88
2023/01/12 13:56:29;;;;;;;9.93;1.90;;;11.40;99.90;;;;;;4992444;28;20155;-87
2023/01/12 13:58:59;;;;;;;3.00;1.20;;;11.40;99.90;;;;;;4992088;28;20171;-89
2023/01/12 14:01:39;;;;;;;4.77;1.83;;;11.40;99.90;;;;;;4991302;28;20175;-87
2023/01/12 14:04:16;;;;;;;5.53;1.20;;;11.40;99.90;;;;;;4990479;28;20270;-89
2023/01/12 14:07:06;;;;;;;3.00;1.20;;;11.50;99.90;;;;;;5000098;28;20219;-86
2023/01/12 14:09:54;;;;;;;4.20;1.77;;;11.50;99.90;;;;;;4998664;28;20180;-88
2023/01/12 14:12:43;;;;;;;2.93;1.47;;;11.40;99.90;;;;;;4989928;28;20198;-89
2023/01/12 14:18:38;;;;;;;5.87;1.60;;;11.60;99.90;;;;;;4996702;28;20210;-89
2023/01/12 14:21:47;;;;;;;3.90;1.50;;;11.70;99.90;;;;;;4989869;28;20214;-89
2023/01/12 14:24:20;;;;;;;4.87;1.33;;;11.70;99.90;;;;;;4993103;28;20256;-90
2023/01/12 14:26:47;;;;;;;3.13;1.70;;;11.80;99.90;;;;;;4992806;28;20225;-90
2023/01/12 14:29:15;;;;;;;2.77;1.00;;;11.70;99.90;;;;;;4977386;28;20616;-85